Messwerte Hahaya / Comoros

Temperatur

Temperatur
°C
1573563600 16.00 16.00 33
1573567200 17.00 17.00 30
1573570800 18.00 18.00 29
1573574400 19.00 19.00 29
1573578000 20.00 20.00
1573581600 21.00 21.00 28
1573585200 22.00 22.00
1573588800 23.00 23.00
1573592400 0.00 0.00
1573596000 1.00 1.00
1573599600 2.00 2.00
1573603200 3.00 3.00
1573606800 4.00 4.00
1573610400 5.00 5.00
1573614000 6.00 6.00 25
1573617600 7.00 7.00 29
1573621200 8.00 8.00 31
1573624800 9.00 9.00 32
1573628400 10.00 10.00 30
1573632000 11.00 11.00 31
1573635600 12.00 12.00 30
1573639200 13.00 13.00 30
1573642800 14.00 14.00 31
1573646400 15.00 15.00 30

Aktuellste Messwerte

Wettercharakter
Wetter: wechselnd bewölkt
Temperatur
30 °C
Feuchtigkeit
70 %
Wind
10 km/hWindrichtung: Südwest
Luftdruck
1011 hPa
Messzeit: 13. November 2019, 15.00Datenquelle: METAR

Weitere Messstationen in der Nähe

Messstation Temperatur Entfernung
Pamandzi 31 °C 260 km
Pemba 30 °C 338 km
Mtwara 30 °C 365 km

Wind

Windrichtung Böen Mittelwind
° km/h km/h
1573563600 16.00 15.00 - 16.00 220° 20
1573567200 17.00 16.00 - 17.00 210° 20
1573570800 18.00 17.00 - 18.00 200° 20
1573574400 19.00 18.00 - 19.00 150° 10
1573578000 20.00 19.00 - 20.00
1573581600 21.00 20.00 - 21.00 140° 5
1573585200 22.00 21.00 - 22.00
1573588800 23.00 22.00 - 23.00
1573592400 0.00 23.00 - 0.00
1573596000 1.00 0.00 - 1.00
1573599600 2.00 1.00 - 2.00
1573603200 3.00 2.00 - 3.00
1573606800 4.00 3.00 - 4.00
1573610400 5.00 4.00 - 5.00
1573614000 6.00 5.00 - 6.00 140° 5
1573617600 7.00 6.00 - 7.00 180° 5
1573621200 8.00 7.00 - 8.00 70° 10
1573624800 9.00 8.00 - 9.00 110° 15
1573628400 10.00 9.00 - 10.00 230° 15
1573632000 11.00 10.00 - 11.00 250° 20
1573635600 12.00 11.00 - 12.00 250° 15
1573639200 13.00 12.00 - 13.00 250° 15
1573642800 14.00 13.00 - 14.00 240° 15
1573646400 15.00 14.00 - 15.00 240° 10

Ihre Wetterstation

Fehlt Ihre Wetterstation auf unserem Portal?

Schreiben Sie an network@meteonews.ch